Time;durP1;ratioP1;P1;durP2;ratioP2;P2;SDS_P1;SDS_P2;PMS_P1;PMS_P2;Temp;Humidity;BMP_temperature;BMP_pressure;BME280_temperature;BME280_humidity;BME280_pressure;Samples;Min_cycle;Max_cycle;Signal;HPM_P1;HPM_P2
2022/08/26 00:01:37;;;;;;;8.52;5.43;;;21.00;90.20;;;;;;5051380;28;20389;-64
2022/08/26 00:04:03;;;;;;;13.57;4.95;;;21.00;90.20;;;;;;5069304;28;20013;-64
2022/08/26 00:06:31;;;;;;;10.38;5.20;;;21.00;90.20;;;;;;5068677;28;20028;-64
2022/08/26 00:08:57;;;;;;;9.95;5.35;;;21.00;90.20;;;;;;5071859;28;20500;-64
2022/08/26 00:11:23;;;;;;;12.15;4.97;;;21.00;90.30;;;;;;5072451;28;20557;-64
2022/08/26 00:13:49;;;;;;;8.57;5.35;;;21.00;90.20;;;;;;5072709;28;20103;-64
2022/08/26 00:16:14;;;;;;;9.45;5.93;;;21.00;90.30;;;;;;5072400;28;20028;-64
2022/08/26 00:18:40;;;;;;;12.30;5.35;;;21.00;90.30;;;;;;5072255;28;20040;-64
2022/08/26 00:21:07;;;;;;;18.63;5.45;;;21.00;90.30;;;;;;5054885;28;20038;-64
2022/08/26 00:23:33;;;;;;;11.68;5.32;;;21.00;90.30;;;;;;5053269;28;20035;-64
2022/08/26 00:25:59;;;;;;;20.63;5.85;;;21.00;90.30;;;;;;5054347;28;20024;-64
2022/08/26 00:28:25;;;;;;;8.52;5.57;;;21.00;90.30;;;;;;5072327;28;20473;-65
2022/08/26 00:30:50;;;;;;;12.05;6.03;;;21.00;90.30;;;;;;5072628;28;20173;-65
2022/08/26 00:33:17;;;;;;;9.70;5.82;;;21.00;90.30;;;;;;5072032;28;20017;-64
2022/08/26 00:35:43;;;;;;;7.97;5.15;;;21.00;90.30;;;;;;5071946;28;20029;-64
2022/08/26 00:38:09;;;;;;;10.07;5.25;;;21.00;90.40;;;;;;5054735;28;20064;-64
2022/08/26 00:40:39;;;;;;;9.82;5.40;;;21.00;90.40;;;;;;5066510;28;20380;-64
2022/08/26 00:43:06;;;;;;;9.43;5.28;;;21.00;90.40;;;;;;5054487;28;20032;-64
2022/08/26 00:45:57;;;;;;;11.25;5.50;;;21.00;90.40;;;;;;5071385;28;20493;-64
2022/08/26 00:48:25;;;;;;;7.32;5.10;;;21.00;90.40;;;;;;5072183;28;20075;-65
2022/08/26 00:50:57;;;;;;;10.63;5.93;;;21.00;90.40;;;;;;5053943;28;20016;-65
2022/08/26 00:53:27;;;;;;;12.07;5.35;;;21.00;90.40;;;;;;5070982;28;20055;-64
2022/08/26 00:56:01;;;;;;;11.68;6.22;;;21.00;90.80;;;;;;5071437;28;20021;-64
2022/08/26 00:58:30;;;;;;;11.52;5.25;;;21.00;90.50;;;;;;5071940;28;20044;-64
2022/08/26 01:00:55;;;;;;;9.48;5.35;;;20.90;90.40;;;;;;5063377;28;20032;-64
2022/08/26 01:03:24;;;;;;;12.93;5.47;;;21.00;90.50;;;;;;5072054;28;20032;-64
2022/08/26 01:05:56;;;;;;;13.90;6.72;;;21.00;90.50;;;;;;5071378;28;20558;-65
2022/08/26 01:08:22;;;;;;;20.20;7.53;;;20.90;90.50;;;;;;5052908;28;20485;-64
2022/08/26 01:10:49;;;;;;;14.75;7.22;;;21.00;90.50;;;;;;5045188;28;20052;-64
2022/08/26 01:13:14;;;;;;;22.27;7.18;;;20.90;90.50;;;;;;5072105;28;20032;-64
2022/08/26 01:15:55;;;;;;;15.57;7.72;;;20.90;90.50;;;;;;5051112;28;20105;-64
2022/08/26 01:18:21;;;;;;;15.55;7.30;;;20.90;90.50;;;;;;5071447;28;20066;-64
2022/08/26 01:21:04;;;;;;;15.05;6.85;;;20.90;90.60;;;;;;5070822;28;20020;-64
2022/08/26 01:23:34;;;;;;;15.05;6.78;;;20.90;90.60;;;;;;5070500;28;20099;-65
2022/08/26 01:26:08;;;;;;;15.50;6.10;;;20.90;90.60;;;;;;5062873;28;20063;-64
2022/08/26 01:28:35;;;;;;;15.48;6.53;;;20.90;90.60;;;;;;5053738;28;20375;-64
2022/08/26 01:31:04;;;;;;;14.10;6.10;;;20.90;90.60;;;;;;5063046;28;20017;-64
2022/08/26 01:33:51;;;;;;;12.65;6.45;;;20.90;90.70;;;;;;5049986;28;20025;-65
2022/08/26 01:36:17;;;;;;;16.20;6.18;;;20.90;90.70;;;;;;5065046;28;20029;-64
2022/08/26 01:38:44;;;;;;;10.48;5.93;;;20.90;90.70;;;;;;5054067;28;20090;-64
2022/08/26 01:41:13;;;;;;;12.10;6.40;;;20.80;90.70;;;;;;5073274;28;20282;-64
2022/08/26 01:43:42;;;;;;;12.20;6.00;;;20.90;90.70;;;;;;5071081;28;20024;-64
2022/08/26 01:46:08;;;;;;;12.00;6.43;;;20.90;90.70;;;;;;5070630;28;20519;-64
2022/08/26 01:48:35;;;;;;;12.40;6.65;;;20.90;90.70;;;;;;5071247;28;20017;-65
2022/08/26 01:51:04;;;;;;;9.23;5.88;;;20.90;90.70;;;;;;5071638;28;20028;-64
2022/08/26 01:53:30;;;;;;;9.25;6.10;;;20.80;90.70;;;;;;5071245;28;20021;-64
2022/08/26 01:55:59;;;;;;;12.65;6.03;;;20.80;90.70;;;;;;5056752;28;20029;-64
2022/08/26 01:58:37;;;;;;;12.32;7.00;;;20.80;90.70;;;;;;5065312;28;20044;-65
2022/08/26 02:01:04;;;;;;;11.98;5.88;;;20.80;90.70;;;;;;5071055;28;20059;-64
2022/08/26 02:03:30;;;;;;;14.32;6.55;;;20.80;90.80;;;;;;5070632;28;20467;-64
2022/08/26 02:06:00;;;;;;;8.40;5.55;;;20.80;90.80;;;;;;5070330;28;20020;-64
2022/08/26 02:08:42;;;;;;;13.65;6.25;;;20.80;90.80;;;;;;5070990;28;20021;-64
2022/08/26 02:11:08;;;;;;;13.88;6.65;;;20.80;90.80;;;;;;5072648;28;20055;-64
2022/08/26 02:13:38;;;;;;;17.42;6.45;;;20.90;90.80;;;;;;5066224;28;20067;-64
2022/08/26 02:16:04;;;;;;;11.35;5.68;;;20.80;90.80;;;;;;5050826;28;20253;-65
2022/08/26 02:18:33;;;;;;;9.82;6.38;;;20.80;90.80;;;;;;5070418;28;20036;-64
2022/08/26 02:21:00;;;;;;;8.65;6.00;;;20.80;90.80;;;;;;5051289;28;20123;-64
2022/08/26 02:23:25;;;;;;;12.75;6.75;;;20.80;91.00;;;;;;5070394;28;20020;-64
2022/08/26 02:26:13;;;;;;;13.48;6.70;;;20.80;90.90;;;;;;5068752;28;20028;-65
2022/08/26 02:28:54;;;;;;;11.75;6.85;;;20.80;90.90;;;;;;5066648;28;20024;-65
2022/08/26 02:31:19;;;;;;;16.38;7.32;;;20.80;90.90;;;;;;5062127;28;20043;-65
2022/08/26 02:33:45;;;;;;;16.92;7.60;;;20.80;90.90;;;;;;5052251;28;20568;-65
2022/08/26 02:36:11;;;;;;;17.60;7.20;;;20.80;90.90;;;;;;5051773;28;20020;-64
2022/08/26 02:38:36;;;;;;;17.13;6.60;;;20.80;90.90;;;;;;5069446;28;20032;-64
2022/08/26 02:41:02;;;;;;;15.15;6.90;;;20.80;90.90;;;;;;5072295;28;20083;-64
2022/08/26 02:43:28;;;;;;;14.18;6.22;;;20.80;90.90;;;;;;5064417;28;20021;-64
2022/08/26 02:45:54;;;;;;;12.73;6.72;;;20.80;90.90;;;;;;5069374;28;20058;-65
2022/08/26 02:48:20;;;;;;;20.50;8.25;;;20.80;90.90;;;;;;5070094;28;20067;-64
2022/08/26 02:50:47;;;;;;;15.82;7.85;;;20.80;90.90;;;;;;5068567;28;20020;-65
2022/08/26 02:53:13;;;;;;;16.05;8.18;;;20.80;90.90;;;;;;5052350;28;20044;-64
2022/08/26 02:55:39;;;;;;;19.33;7.90;;;20.80;90.90;;;;;;5073712;28;20111;-64
2022/08/26 02:58:05;;;;;;;18.10;7.07;;;20.80;90.90;;;;;;5061121;28;20032;-64
2022/08/26 03:00:31;;;;;;;13.25;7.25;;;20.80;91.00;;;;;;5068513;28;20250;-64
2022/08/26 03:02:58;;;;;;;17.42;7.60;;;20.80;91.00;;;;;;5069718;28;20508;-64
2022/08/26 03:05:24;;;;;;;18.48;7.68;;;20.80;91.00;;;;;;5069228;28;20024;-64
2022/08/26 03:07:51;;;;;;;17.65;7.93;;;20.80;91.00;;;;;;5069141;28;20066;-65
2022/08/26 03:10:18;;;;;;;14.80;8.05;;;20.80;91.00;;;;;;5050478;28;20028;-64
2022/08/26 03:12:44;;;;;;;12.85;7.22;;;20.70;91.00;;;;;;5070322;28;20505;-64
2022/08/26 03:15:10;;;;;;;15.98;8.45;;;20.70;91.00;;;;;;5069497;28;20016;-64
2022/08/26 03:17:36;;;;;;;16.50;7.85;;;20.70;91.00;;;;;;5051832;28;20113;-64
2022/08/26 03:20:07;;;;;;;18.50;8.75;;;20.70;91.00;;;;;;5069792;28;20020;-64
2022/08/26 03:22:33;;;;;;;22.13;7.63;;;20.80;91.10;;;;;;5051724;28;20111;-64
2022/08/26 03:24:59;;;;;;;19.08;8.05;;;20.70;91.00;;;;;;5066445;28;20100;-64
2022/08/26 03:27:25;;;;;;;15.55;8.13;;;20.70;91.00;;;;;;5069625;28;20374;-64
2022/08/26 03:32:35;;;;;;;16.23;8.90;;;20.70;91.10;;;;;;5069772;28;20063;-64
2022/08/26 03:35:00;;;;;;;20.98;9.43;;;20.70;91.10;;;;;;5068885;28;20518;-64
2022/08/26 03:37:26;;;;;;;17.05;8.25;;;20.70;91.10;;;;;;5047899;28;20033;-64
2022/08/26 03:39:52;;;;;;;19.38;7.00;;;20.70;91.10;;;;;;5064899;28;20041;-65
2022/08/26 03:42:17;;;;;;;20.33;8.38;;;20.70;91.10;;;;;;5062278;28;20350;-64
2022/08/26 03:44:43;;;;;;;17.70;7.60;;;20.70;91.10;;;;;;5072771;28;20028;-64
2022/08/26 03:47:09;;;;;;;13.98;7.95;;;20.70;91.10;;;;;;5072636;28;20059;-64
2022/08/26 03:49:34;;;;;;;12.15;8.38;;;20.70;91.10;;;;;;5072692;28;20044;-65
2022/08/26 03:52:02;;;;;;;14.38;8.05;;;20.70;91.10;;;;;;5054808;28;20033;-64
2022/08/26 03:54:27;;;;;;;16.80;8.18;;;20.70;91.10;;;;;;5072882;28;20051;-64
2022/08/26 03:56:53;;;;;;;15.00;7.72;;;20.70;91.10;;;;;;5064237;28;20118;-65
2022/08/26 03:59:18;;;;;;;14.52;8.75;;;20.70;91.10;;;;;;5072524;28;20028;-65
2022/08/26 04:01:44;;;;;;;17.77;7.45;;;20.70;91.20;;;;;;5071514;28;20384;-64
2022/08/26 04:04:10;;;;;;;16.45;8.02;;;20.60;91.10;;;;;;5072846;28;20036;-64
2022/08/26 04:06:43;;;;;;;16.73;7.63;;;20.70;91.20;;;;;;5072349;28;20027;-64
2022/08/26 04:09:12;;;;;;;19.40;7.93;;;20.70;91.20;;;;;;5072433;28;20031;-64
2022/08/26 04:11:38;;;;;;;20.80;8.77;;;20.60;91.20;;;;;;5071921;28;20101;-64
2022/08/26 04:14:12;;;;;;;22.00;9.60;;;20.60;91.20;;;;;;5071744;28;20097;-65
2022/08/26 04:16:37;;;;;;;18.90;9.02;;;20.60;91.50;;;;;;5072269;28;20129;-64
2022/08/26 04:19:03;;;;;;;20.05;8.25;;;20.60;91.20;;;;;;5072526;28;20469;-64
2022/08/26 04:21:29;;;;;;;29.45;8.40;;;20.60;91.20;;;;;;5054401;28;20060;-64
2022/08/26 04:23:54;;;;;;;15.63;7.10;;;20.60;91.20;;;;;;5072968;28;20025;-65
2022/08/26 04:26:21;;;;;;;14.45;7.57;;;20.60;91.20;;;;;;5079634;28;20082;-64
2022/08/26 04:28:49;;;;;;;18.88;8.18;;;20.60;91.20;;;;;;5063869;28;20111;-65
2022/08/26 04:31:16;;;;;;;20.38;7.90;;;20.60;91.20;;;;;;5072249;28;20047;-64
2022/08/26 04:33:44;;;;;;;15.70;7.07;;;20.60;91.20;;;;;;5072594;28;20103;-64
2022/08/26 04:36:10;;;;;;;15.55;7.68;;;20.60;91.20;;;;;;5071757;28;20020;-64
2022/08/26 04:38:38;;;;;;;17.90;8.48;;;20.60;91.30;;;;;;5072346;28;20025;-65
2022/08/26 04:41:10;;;;;;;21.52;8.07;;;20.50;91.20;;;;;;5077677;28;20404;-64
2022/08/26 04:43:36;;;;;;;19.10;8.10;;;20.60;91.30;;;;;;5059501;28;20028;-64
2022/08/26 04:46:03;;;;;;;15.30;7.38;;;20.60;91.30;;;;;;5068300;28;20028;-65
2022/08/26 04:48:31;;;;;;;12.43;7.25;;;20.60;91.30;;;;;;5071963;28;20074;-64
2022/08/26 04:50:58;;;;;;;11.80;7.13;;;20.50;91.20;;;;;;5071695;28;20021;-64
2022/08/26 04:53:27;;;;;;;18.52;7.65;;;20.60;91.30;;;;;;5071058;28;20058;-64
2022/08/26 04:55:53;;;;;;;18.35;8.27;;;20.50;91.30;;;;;;5051839;28;20701;-65
2022/08/26 04:58:21;;;;;;;31.20;7.80;;;20.50;91.30;;;;;;5071515;28;20037;-63
2022/08/26 05:00:48;;;;;;;11.27;6.88;;;20.60;91.30;;;;;;5069249;28;20401;-63
2022/08/26 05:03:16;;;;;;;13.65;7.60;;;20.50;91.20;;;;;;5071620;28;20059;-63
2022/08/26 05:05:43;;;;;;;15.40;7.82;;;20.50;91.20;;;;;;5070973;28;20170;-66
2022/08/26 05:08:11;;;;;;;14.23;7.43;;;20.50;91.20;;;;;;5071678;28;20020;-64
2022/08/26 05:10:47;;;;;;;18.60;7.63;;;20.50;91.20;;;;;;5072533;28;20020;-63
2022/08/26 05:13:14;;;;;;;10.80;7.25;;;20.50;91.20;;;;;;5063000;28;20035;-64
2022/08/26 05:15:40;;;;;;;9.85;6.70;;;20.50;91.20;;;;;;5064151;28;20051;-63
2022/08/26 05:18:06;;;;;;;15.77;6.85;;;20.50;91.20;;;;;;5071061;28;20063;-63
2022/08/26 05:20:38;;;;;;;11.27;7.28;;;20.50;91.20;;;;;;5049802;28;20020;-63
2022/08/26 05:23:04;;;;;;;15.30;7.18;;;20.50;91.20;;;;;;5067773;28;20089;-63
2022/08/26 05:25:30;;;;;;;15.18;7.70;;;20.50;91.20;;;;;;5069771;28;20024;-64
2022/08/26 05:27:56;;;;;;;16.13;8.02;;;20.50;91.20;;;;;;5071354;28;20230;-63
2022/08/26 05:30:23;;;;;;;20.35;7.20;;;20.50;91.20;;;;;;5051630;28;20025;-64
2022/08/26 05:32:49;;;;;;;10.50;6.88;;;20.50;91.20;;;;;;5070926;28;20025;-64
2022/08/26 05:35:18;;;;;;;17.63;8.10;;;20.50;91.10;;;;;;5070783;28;20113;-63
2022/08/26 05:37:43;;;;;;;16.58;7.28;;;20.50;91.10;;;;;;5071159;28;20123;-63
2022/08/26 05:40:09;;;;;;;23.33;7.88;;;20.50;91.10;;;;;;5052658;28;20115;-63
2022/08/26 05:42:35;;;;;;;14.68;7.63;;;20.60;91.10;;;;;;5070903;28;20539;-63
2022/08/26 05:45:00;;;;;;;25.30;8.05;;;20.60;91.10;;;;;;5070793;28;20020;-63
2022/08/26 05:47:26;;;;;;;23.15;8.45;;;20.60;91.10;;;;;;5070430;28;20044;-64
2022/08/26 05:49:52;;;;;;;16.95;7.85;;;20.60;91.10;;;;;;5070718;28;20027;-63
2022/08/26 05:52:18;;;;;;;14.70;8.57;;;20.60;91.10;;;;;;5070632;28;20401;-63
2022/08/26 05:54:44;;;;;;;16.70;7.32;;;20.60;91.00;;;;;;5070888;28;20225;-63
2022/08/26 05:57:11;;;;;;;18.33;8.27;;;20.60;91.00;;;;;;5069016;28;20044;-63
2022/08/26 05:59:37;;;;;;;17.52;7.93;;;20.70;91.10;;;;;;5061302;28;20047;-63
2022/08/26 06:02:04;;;;;;;22.75;7.82;;;20.70;91.00;;;;;;5070430;28;20024;-63
2022/08/26 06:04:30;;;;;;;23.63;8.23;;;20.70;91.00;;;;;;5070114;28;20549;-63
2022/08/26 06:06:56;;;;;;;12.52;7.60;;;20.80;91.10;;;;;;5069920;28;20021;-63
2022/08/26 06:09:22;;;;;;;20.92;8.00;;;20.80;91.00;;;;;;5070662;28;20055;-63
2022/08/26 06:11:48;;;;;;;20.88;7.57;;;20.80;91.10;;;;;;5068767;28;20055;-64
2022/08/26 06:14:13;;;;;;;13.32;7.90;;;20.80;91.00;;;;;;5070390;28;20024;-64
2022/08/26 06:16:42;;;;;;;17.83;7.60;;;20.80;91.00;;;;;;5052009;28;20533;-63
2022/08/26 06:19:09;;;;;;;17.45;8.15;;;20.90;91.00;;;;;;5052141;28;20044;-63
2022/08/26 06:21:38;;;;;;;17.92;8.05;;;20.90;91.00;;;;;;5069914;28;20477;-63
2022/08/26 06:26:54;;;;;;;18.02;8.20;;;21.00;90.90;;;;;;5062219;28;20059;-64
2022/08/26 06:29:23;;;;;;;15.05;8.85;;;21.00;90.90;;;;;;5070053;28;20473;-63
2022/08/26 06:31:49;;;;;;;17.15;8.00;;;21.10;90.90;;;;;;5051575;28;20024;-64
2022/08/26 06:34:14;;;;;;;15.32;8.45;;;21.10;90.90;;;;;;5070306;28;20432;-63
2022/08/26 06:36:41;;;;;;;18.35;8.73;;;21.10;90.80;;;;;;5069778;28;20020;-63
2022/08/26 06:39:09;;;;;;;20.42;7.90;;;21.20;90.90;;;;;;5069376;28;20032;-63
2022/08/26 06:41:36;;;;;;;17.33;8.57;;;21.20;90.90;;;;;;5068777;28;20523;-63
2022/08/26 06:44:04;;;;;;;13.00;7.90;;;21.30;90.90;;;;;;5070050;28;20131;-63
2022/08/26 06:46:30;;;;;;;21.92;9.00;;;21.30;90.90;;;;;;5051725;28;20031;-63
2022/08/26 06:48:59;;;;;;;23.33;8.43;;;21.40;91.00;;;;;;5069834;28;20103;-63
2022/08/26 06:51:28;;;;;;;23.70;9.23;;;21.40;91.00;;;;;;5069794;28;20116;-64
2022/08/26 06:53:56;;;;;;;17.40;8.70;;;21.50;91.00;;;;;;5069587;28;20036;-64
2022/08/26 06:56:25;;;;;;;19.38;9.32;;;21.50;91.00;;;;;;5068329;28;20394;-63
2022/08/26 06:58:51;;;;;;;23.52;9.88;;;21.60;91.00;;;;;;5073434;28;20059;-64
2022/08/26 07:01:19;;;;;;;21.08;9.05;;;21.60;90.90;;;;;;5056785;28;20317;-63
2022/08/26 07:03:46;;;;;;;22.48;8.63;;;21.60;90.90;;;;;;5060964;28;20456;-64
2022/08/26 07:06:12;;;;;;;25.45;11.65;;;21.70;90.90;;;;;;5069247;28;20074;-63
2022/08/26 07:08:37;;;;;;;35.67;12.40;;;21.70;90.90;;;;;;5069758;28;20028;-63
2022/08/26 07:11:08;;;;;;;21.00;10.38;;;21.80;90.90;;;;;;5069386;28;20029;-63
2022/08/26 07:13:36;;;;;;;20.45;10.32;;;21.80;90.90;;;;;;5050617;28;20040;-63
2022/08/26 07:16:11;;;;;;;36.30;10.40;;;21.80;90.80;;;;;;5047836;28;20025;-64
2022/08/26 07:18:38;;;;;;;18.20;9.70;;;21.90;90.90;;;;;;5054056;28;20559;-63
2022/08/26 07:21:06;;;;;;;34.53;12.30;;;21.90;90.90;;;;;;5073940;28;20025;-64
2022/08/26 07:23:32;;;;;;;32.55;12.88;;;22.00;90.90;;;;;;5074234;28;20052;-63
2022/08/26 07:25:59;;;;;;;25.75;11.20;;;22.00;90.80;;;;;;5073253;28;20159;-63
2022/08/26 07:28:24;;;;;;;30.85;11.10;;;22.10;90.80;;;;;;5065368;28;20025;-64
2022/08/26 07:30:50;;;;;;;23.38;11.77;;;22.10;90.80;;;;;;5065343;28;20027;-64
2022/08/26 07:33:16;;;;;;;27.50;11.15;;;22.20;90.80;;;;;;5055526;28;20028;-63
2022/08/26 07:35:43;;;;;;;35.05;11.52;;;22.20;90.70;;;;;;5073116;28;20035;-63
2022/08/26 07:38:10;;;;;;;21.35;11.88;;;22.20;90.70;;;;;;5072978;28;20362;-63
2022/08/26 07:40:36;;;;;;;31.77;13.80;;;22.30;90.60;;;;;;5072842;28;20025;-64
2022/08/26 07:43:02;;;;;;;28.63;14.15;;;22.30;90.50;;;;;;5059841;28;20029;-63
2022/08/26 07:45:28;;;;;;;29.50;12.15;;;22.40;90.50;;;;;;5064213;28;20100;-63
2022/08/26 07:47:54;;;;;;;19.80;10.73;;;22.40;90.40;;;;;;5073323;28;20060;-63
2022/08/26 07:50:21;;;;;;;31.08;11.98;;;22.50;90.40;;;;;;5072947;28;20028;-63
2022/08/26 07:52:47;;;;;;;23.67;12.60;;;22.50;90.30;;;;;;5072671;28;20033;-64
2022/08/26 07:55:13;;;;;;;27.77;12.13;;;22.50;90.30;;;;;;5072248;28;20036;-63
2022/08/26 07:57:39;;;;;;;29.95;10.40;;;22.60;90.20;;;;;;5071313;28;20029;-63
2022/08/26 08:00:07;;;;;;;19.48;10.30;;;22.60;90.20;;;;;;5071955;28;20036;-63
2022/08/26 08:02:34;;;;;;;24.25;10.98;;;22.60;90.10;;;;;;5072552;28;20123;-63
2022/08/26 08:04:59;;;;;;;30.88;11.18;;;22.70;90.10;;;;;;5071955;28;20032;-63
2022/08/26 08:07:26;;;;;;;22.30;11.80;;;22.70;90.00;;;;;;5072661;28;20024;-63
2022/08/26 08:09:52;;;;;;;29.30;11.32;;;22.80;90.00;;;;;;5071907;28;20048;-64
2022/08/26 08:12:18;;;;;;;27.67;12.57;;;22.80;89.90;;;;;;5066475;28;20488;-63
2022/08/26 08:14:45;;;;;;;39.35;12.60;;;22.80;89.70;;;;;;5069039;28;20044;-63
2022/08/26 08:17:12;;;;;;;36.88;12.50;;;22.90;89.70;;;;;;5064292;28;20059;-64
2022/08/26 08:19:38;;;;;;;20.60;11.82;;;22.90;89.60;;;;;;5060591;28;20017;-63
2022/08/26 08:22:04;;;;;;;25.63;10.82;;;22.90;89.50;;;;;;5061017;28;20016;-63
2022/08/26 08:24:32;;;;;;;32.72;12.95;;;22.90;89.50;;;;;;5060256;28;20539;-64
2022/08/26 08:27:01;;;;;;;25.73;10.63;;;23.00;89.50;;;;;;5062825;28;20040;-64
2022/08/26 08:29:29;;;;;;;27.38;11.32;;;23.00;89.50;;;;;;5067328;28;20046;-64
2022/08/26 08:31:56;;;;;;;23.08;10.40;;;23.10;89.50;;;;;;5061385;28;20029;-64
2022/08/26 08:34:23;;;;;;;31.05;11.30;;;23.00;89.40;;;;;;5060408;28;20111;-63
2022/08/26 08:36:49;;;;;;;25.40;11.73;;;23.10;89.50;;;;;;5061826;28;20013;-63
2022/08/26 08:39:15;;;;;;;39.65;10.93;;;23.10;89.40;;;;;;5063102;28;20044;-63
2022/08/26 08:41:56;;;;;;;22.73;9.05;;;23.10;89.30;;;;;;5065776;28;20481;-64
2022/08/26 08:44:24;;;;;;;22.08;10.52;;;23.20;89.20;;;;;;5067937;28;20016;-64
2022/08/26 08:46:56;;;;;;;29.17;10.95;;;23.20;89.10;;;;;;5061439;28;20063;-64
2022/08/26 08:49:24;;;;;;;29.88;11.95;;;23.20;89.00;;;;;;5065698;28;20008;-63
2022/08/26 08:52:02;;;;;;;23.40;10.10;;;23.20;88.90;;;;;;5044176;28;20432;-64
2022/08/26 08:54:30;;;;;;;19.33;9.77;;;23.20;88.80;;;;;;5060353;28;20055;-64
2022/08/26 08:57:02;;;;;;;31.38;11.05;;;23.30;88.80;;;;;;5066400;28;20024;-63
2022/08/26 08:59:33;;;;;;;21.73;10.88;;;23.30;88.60;;;;;;5066758;28;20553;-63
2022/08/26 09:02:18;;;;;;;26.75;11.32;;;23.30;88.60;;;;;;5067498;28;20067;-63
2022/08/26 09:05:03;;;;;;;28.05;12.55;;;23.30;88.50;;;;;;5067160;28;20439;-63
2022/08/26 09:07:43;;;;;;;27.45;11.23;;;23.30;88.40;;;;;;5064063;28;20024;-64
2022/08/26 09:10:35;;;;;;;24.30;9.95;;;23.40;88.50;;;;;;5063069;28;20021;-63
2022/08/26 09:13:08;;;;;;;25.90;10.18;;;23.40;88.40;;;;;;5062046;28;20024;-64
2022/08/26 09:15:51;;;;;;;21.52;10.30;;;23.40;88.40;;;;;;5067041;28;20028;-63
2022/08/26 09:18:27;;;;;;;20.33;10.27;;;23.40;88.30;;;;;;5064985;28;20082;-64
2022/08/26 09:20:55;;;;;;;24.10;9.90;;;23.40;88.30;;;;;;5066796;28;20047;-64
2022/08/26 09:23:22;;;;;;;21.33;9.98;;;23.40;88.20;;;;;;5070127;28;20091;-63
2022/08/26 09:25:49;;;;;;;26.25;9.48;;;23.40;88.20;;;;;;5070632;28;20021;-63
2022/08/26 09:28:17;;;;;;;31.20;9.45;;;23.40;88.20;;;;;;5074184;28;20020;-64
2022/08/26 09:30:45;;;;;;;19.92;8.23;;;23.50;88.20;;;;;;5065099;28;20040;-63
2022/08/26 09:33:16;;;;;;;24.92;8.55;;;23.50;88.20;;;;;;5070608;28;20017;-64
2022/08/26 09:35:46;;;;;;;17.65;8.95;;;23.50;88.10;;;;;;5070756;28;20016;-63
2022/08/26 09:38:20;;;;;;;16.85;7.88;;;23.40;88.00;;;;;;5071014;28;20032;-64
2022/08/26 09:40:56;;;;;;;19.17;8.18;;;23.50;88.10;;;;;;5069288;28;20025;-64
2022/08/26 09:43:21;;;;;;;14.98;7.13;;;23.40;88.10;;;;;;5069654;28;20063;-63
2022/08/26 09:45:54;;;;;;;22.55;8.00;;;23.40;88.00;;;;;;5069992;28;20056;-63
2022/08/26 09:48:31;;;;;;;23.45;8.32;;;23.40;88.00;;;;;;5070885;28;20063;-64
2022/08/26 09:51:22;;;;;;;17.65;9.13;;;23.40;88.10;;;;;;5063485;28;20024;-64
2022/08/26 09:54:25;;;;;;;16.30;7.88;;;23.40;88.10;;;;;;5070457;28;20025;-64
2022/08/26 09:56:52;;;;;;;21.98;7.75;;;23.30;88.10;;;;;;4968225;28;20072;-65
2022/08/26 09:59:30;;;;;;;15.00;7.32;;;23.30;88.10;;;;;;4963130;28;20505;-64
2022/08/26 10:02:32;;;;;;;27.13;8.20;;;23.30;88.30;;;;;;4966312;28;20553;-64
2022/08/26 10:05:01;;;;;;;15.52;7.88;;;23.30;88.30;;;;;;4968713;28;20066;-61
2022/08/26 10:07:40;;;;;;;21.45;8.75;;;23.30;88.40;;;;;;4969367;28;20042;-61
2022/08/26 10:10:22;;;;;;;21.50;7.50;;;23.30;88.50;;;;;;4962659;28;20037;-62
2022/08/26 10:13:41;;;;;;;19.08;8.45;;;23.20;88.50;;;;;;4968359;28;20042;-62
2022/08/26 10:16:17;;;;;;;25.95;7.75;;;23.20;88.50;;;;;;4891799;29;20058;-62
2022/08/26 10:18:55;;;;;;;17.88;7.13;;;23.20;88.70;;;;;;4892941;29;20052;-62
2022/08/26 10:21:36;;;;;;;24.55;8.73;;;23.20;88.70;;;;;;4879730;29;20051;-61
2022/08/26 10:24:03;;;;;;;20.13;8.55;;;23.20;88.80;;;;;;4892538;29;20099;-61
2022/08/26 10:26:37;;;;;;;21.33;7.80;;;23.10;88.80;;;;;;4891917;29;20047;-61
2022/08/26 10:29:06;;;;;;;31.85;7.70;;;23.10;88.90;;;;;;4885716;29;20033;-62
2022/08/26 10:31:41;;;;;;;21.67;7.50;;;23.10;89.00;;;;;;4892486;29;20028;-61
2022/08/26 10:34:09;;;;;;;15.60;6.60;;;23.10;89.10;;;;;;4964683;28;20412;-61
2022/08/26 10:36:48;;;;;;;17.30;7.72;;;23.10;89.20;;;;;;4971491;28;20014;-61
2022/08/26 10:39:45;;;;;;;21.10;8.65;;;23.00;89.10;;;;;;4955402;28;20030;-62
2022/08/26 10:42:31;;;;;;;24.63;8.07;;;23.00;89.20;;;;;;4988450;28;20026;-61
2022/08/26 10:45:05;;;;;;;17.75;7.43;;;23.00;89.40;;;;;;4981334;28;20037;-61
2022/08/26 10:47:45;;;;;;;17.55;7.53;;;22.90;89.30;;;;;;5048940;28;20123;-62
2022/08/26 10:50:10;;;;;;;30.63;8.40;;;22.90;89.40;;;;;;5069527;28;20093;-61
2022/08/26 10:52:56;;;;;;;20.50;6.85;;;22.90;89.50;;;;;;5068881;28;20480;-62
2022/08/26 10:55:35;;;;;;;19.42;6.38;;;22.90;89.20;;;;;;5060065;28;20032;-62
2022/08/26 10:58:22;;;;;;;13.30;6.45;;;22.90;89.40;;;;;;5067627;28;20032;-62
2022/08/26 11:03:54;;;;;;;24.30;7.13;;;22.80;89.50;;;;;;5064724;28;20027;-62
2022/08/26 11:06:20;;;;;;;17.63;7.13;;;22.90;89.60;;;;;;5043479;28;20024;-63
2022/08/26 11:08:50;;;;;;;22.52;7.15;;;22.80;90.10;;;;;;5051738;28;20386;-62
2022/08/26 11:11:40;;;;;;;17.38;7.45;;;22.80;89.70;;;;;;5069463;28;20120;-62
2022/08/26 11:14:19;;;;;;;13.68;6.55;;;22.80;89.80;;;;;;5071558;28;20435;-63
2022/08/26 11:16:44;;;;;;;23.02;6.97;;;22.80;89.90;;;;;;5060588;28;20423;-63
2022/08/26 11:19:40;;;;;;;12.88;6.65;;;22.80;90.00;;;;;;5069218;28;20119;-63
2022/08/26 11:22:26;;;;;;;16.33;5.63;;;22.70;90.00;;;;;;5058464;28;20422;-63
2022/08/26 11:24:52;;;;;;;12.30;4.85;;;22.70;90.40;;;;;;5069296;28;20056;-63
2022/08/26 11:27:36;;;;;;;17.80;6.25;;;22.70;90.30;;;;;;5069901;28;20056;-62
2022/08/26 11:30:15;;;;;;;11.35;5.40;;;22.70;90.10;;;;;;5094716;22;20099;-68
2022/08/26 11:32:42;;;;;;;12.82;6.30;;;22.60;90.10;;;;;;5018657;28;20045;-68
2022/08/26 11:35:16;;;;;;;11.63;6.10;;;22.60;90.10;;;;;;5017002;28;20025;-68
2022/08/26 11:37:47;;;;;;;12.90;5.07;;;22.60;90.10;;;;;;5018226;28;20030;-68
2022/08/26 11:40:20;;;;;;;25.60;6.28;;;22.60;90.10;;;;;;5039305;28;20022;-68
2022/08/26 11:43:07;;;;;;;11.02;4.85;;;22.60;90.20;;;;;;5040826;28;20025;-68
2022/08/26 11:45:41;;;;;;;11.93;5.25;;;22.60;90.20;;;;;;5035774;28;20498;-68
2022/08/26 11:48:40;;;;;;;19.33;6.57;;;22.60;90.20;;;;;;5039082;28;20021;-68
2022/08/26 11:51:23;;;;;;;16.30;7.75;;;22.50;90.20;;;;;;5040867;28;20053;-68
2022/08/26 11:53:50;;;;;;;23.48;8.50;;;22.60;90.30;;;;;;5022747;28;20497;-68
2022/08/26 11:56:32;;;;;;;18.60;7.90;;;22.50;90.30;;;;;;5038551;28;20051;-68
2022/08/26 11:59:00;;;;;;;18.55;8.57;;;22.50;90.70;;;;;;5023828;28;20442;-69
2022/08/26 12:01:29;;;;;;;18.80;7.22;;;22.50;90.40;;;;;;5031373;28;20059;-68
2022/08/26 12:04:31;;;;;;;19.92;7.75;;;22.50;90.40;;;;;;5037579;28;20029;-68
2022/08/26 12:06:59;;;;;;;20.10;9.55;;;22.50;90.50;;;;;;5016651;28;20043;-68
2022/08/26 12:09:30;;;;;;;25.40;8.90;;;22.50;90.50;;;;;;5024036;28;20025;-68
2022/08/26 12:12:18;;;;;;;21.65;8.38;;;22.50;90.60;;;;;;5017283;28;20079;-68
2022/08/26 12:14:44;;;;;;;16.92;8.25;;;22.50;90.70;;;;;;5021193;28;20051;-68
2022/08/26 12:17:18;;;;;;;24.75;9.02;;;22.50;90.70;;;;;;5026643;28;20029;-68
2022/08/26 12:19:44;;;;;;;14.38;7.78;;;22.50;90.80;;;;;;5039061;28;20053;-68
2022/08/26 12:22:43;;;;;;;18.08;7.45;;;22.40;90.70;;;;;;5045842;28;20493;-68
2022/08/26 12:25:09;;;;;;;19.08;8.68;;;22.40;90.80;;;;;;4991351;28;20058;-68
2022/08/26 12:27:44;;;;;;;18.27;8.40;;;22.40;90.80;;;;;;4994494;28;20023;-68
2022/08/26 13:01:52;;;;;;;18.52;8.00;;;22.40;91.30;;;;;;5031633;28;20038;-68
2022/08/26 13:04:36;;;;;;;11.85;7.65;;;22.40;91.30;;;;;;5017268;28;20061;-68
2022/08/26 13:07:20;;;;;;;20.80;9.73;;;22.30;91.30;;;;;;5043711;28;20499;-68
2022/08/26 13:09:46;;;;;;;15.05;8.93;;;22.30;91.30;;;;;;5044776;28;20052;-68
2022/08/26 13:12:26;;;;;;;22.23;9.57;;;22.40;91.40;;;;;;5043128;28;20103;-68
2022/08/26 13:14:52;;;;;;;14.98;7.40;;;22.40;91.40;;;;;;5021519;28;20076;-68
2022/08/26 13:17:19;;;;;;;14.80;7.57;;;22.40;91.40;;;;;;5040824;28;20023;-68
2022/08/26 13:19:44;;;;;;;16.70;7.90;;;22.40;91.40;;;;;;5039738;28;20383;-68
2022/08/26 13:22:12;;;;;;;11.30;7.15;;;22.30;91.40;;;;;;5047756;28;20500;-68
2022/08/26 13:24:43;;;;;;;13.30;6.70;;;22.40;91.40;;;;;;5021906;28;20043;-68
2022/08/26 13:27:12;;;;;;;13.80;7.03;;;22.30;91.50;;;;;;5030397;28;20369;-68
2022/08/26 13:29:38;;;;;;;24.92;7.13;;;22.40;91.50;;;;;;5033288;28;20026;-68
2022/08/26 13:32:05;;;;;;;12.52;6.57;;;22.40;91.50;;;;;;5033520;28;20117;-68